Amity, Oregon
Current Conditions -  °F | °C
As of 9:53 AM on Sunday 21 Dec 2014 (Local Time) from KMMV Reporting Station
Overcast Overcast  
Wind Chill: 55°   Ceiling: 7000
Heat Index: 55°   Visibility: 10mi
Dew Point: 50°   Wind: 12mph
Humidity: 83%   Direction: 200°SSW
Pressure: 30.06"   Gusts: NA
Location:  45.12°N, 123.21°W
Report Text: KMMV 211753Z AUTO 20010KT 10SM BKN070 BKN085 OVC100 13/10 A3006 RMK AO2 SLP179 60002 T01280100 10128 20117 53032 $
Loading
Personal Weather Stations






























Interactive Weather Map New forecast layout! Learn more

10-Day Weather Forecast

Advertisements
Track Severe Weather on mobile